createdAt,value
2023-02-06T00:01:33.323Z,99.90
2023-02-06T00:04:00.185Z,99.90
2023-02-06T00:06:27.040Z,99.90
2023-02-06T00:08:54.246Z,99.90
2023-02-06T00:11:21.888Z,99.90
2023-02-06T00:13:49.548Z,99.90
2023-02-06T00:16:25.499Z,99.90
2023-02-06T00:18:53.258Z,99.90
2023-02-06T00:21:22.002Z,99.90
2023-02-06T00:23:50.016Z,99.90
2023-02-06T00:26:17.260Z,99.90
2023-02-06T00:28:45.057Z,99.90
2023-02-06T00:31:12.368Z,99.90
2023-02-06T00:33:39.618Z,99.90
2023-02-06T00:36:06.935Z,99.90
2023-02-06T00:38:33.857Z,99.90
2023-02-06T00:41:00.611Z,99.90
2023-02-06T00:43:27.475Z,99.90
2023-02-06T00:45:57.859Z,99.90
2023-02-06T00:48:25.658Z,99.90
2023-02-06T00:50:52.865Z,99.90
2023-02-06T00:53:19.845Z,99.90
2023-02-06T00:55:46.626Z,99.90
2023-02-06T00:58:14.562Z,99.90
2023-02-06T01:00:43.535Z,99.90
2023-02-06T01:03:10.482Z,99.90
2023-02-06T01:05:37.650Z,99.90
2023-02-06T01:08:04.858Z,99.90
2023-02-06T01:10:32.741Z,99.90
2023-02-06T01:13:00.369Z,99.90
2023-02-06T01:15:27.367Z,99.90
2023-02-06T01:17:54.144Z,99.90
2023-02-06T01:20:21.727Z,99.90
2023-02-06T01:22:48.637Z,99.90
2023-02-06T01:25:15.481Z,99.90
2023-02-06T01:27:42.547Z,99.90
2023-02-06T01:30:10.283Z,99.90
2023-02-06T01:32:41.457Z,99.90
2023-02-06T01:35:10.235Z,99.90
2023-02-06T01:37:38.271Z,99.90
2023-02-06T01:40:08.921Z,99.90
2023-02-06T01:42:37.377Z,99.90
2023-02-06T01:45:25.860Z,99.90
2023-02-06T01:47:57.982Z,99.90
2023-02-06T01:50:24.965Z,99.90
2023-02-06T01:52:51.941Z,99.90
2023-02-06T01:55:18.819Z,99.90
2023-02-06T01:57:45.866Z,99.90
2023-02-06T02:00:13.650Z,99.90
2023-02-06T02:02:45.098Z,99.90
2023-02-06T02:05:13.127Z,99.90
2023-02-06T02:08:01.160Z,99.90
2023-02-06T02:10:30.116Z,99.90
2023-02-06T02:12:57.322Z,99.90
2023-02-06T02:15:39.874Z,99.90
2023-02-06T02:18:26.970Z,99.90
2023-02-06T02:21:29.041Z,99.90
2023-02-06T02:24:04.373Z,99.90
2023-02-06T02:27:04.599Z,99.90
2023-02-06T02:29:47.251Z,99.90
2023-02-06T02:32:31.729Z,99.90
2023-02-06T02:35:18.842Z,99.90
2023-02-06T02:37:49.450Z,99.90
2023-02-06T02:40:43.065Z,99.90
2023-02-06T02:43:27.407Z,99.90
2023-02-06T02:45:54.435Z,99.90
2023-02-06T02:48:26.624Z,99.90
2023-02-06T02:50:55.144Z,99.90
2023-02-06T02:53:22.131Z,99.90
2023-02-06T02:55:48.998Z,99.90
2023-02-06T02:58:21.317Z,99.90
2023-02-06T03:00:58.188Z,99.90
2023-02-06T03:03:28.877Z,99.90
2023-02-06T03:06:24.333Z,99.90
2023-02-06T03:08:58.974Z,99.90
2023-02-06T03:11:26.485Z,99.90
2023-02-06T03:14:02.549Z,99.90
2023-02-06T03:16:38.018Z,99.90
2023-02-06T03:19:12.006Z,99.90
2023-02-06T03:21:40.664Z,99.90
2023-02-06T03:24:13.359Z,99.90
2023-02-06T03:26:41.189Z,99.90
2023-02-06T03:29:11.433Z,99.90
2023-02-06T03:31:51.868Z,99.90
2023-02-06T03:34:28.536Z,99.90
2023-02-06T03:36:55.590Z,99.90
2023-02-06T03:39:23.056Z,99.90
2023-02-06T03:41:51.434Z,99.90
2023-02-06T03:44:23.875Z,99.90
2023-02-06T03:46:52.229Z,99.90
2023-02-06T03:49:20.854Z,99.90
2023-02-06T03:51:57.597Z,99.90
2023-02-06T03:54:25.944Z,99.90
2023-02-06T03:56:59.601Z,99.90
2023-02-06T03:59:27.792Z,99.90
2023-02-06T04:01:59.978Z,99.90
2023-02-06T04:04:30.704Z,99.90
2023-02-06T04:07:07.376Z,99.90
2023-02-06T04:09:35.245Z,99.90
2023-02-06T04:12:01.984Z,99.90
2023-02-06T04:14:29.277Z,99.90
2023-02-06T04:16:56.208Z,99.90
2023-02-06T04:19:22.978Z,99.90
2023-02-06T04:21:49.936Z,99.90
2023-02-06T04:24:16.880Z,99.90
2023-02-06T04:26:43.641Z,99.90
2023-02-06T04:29:12.842Z,99.90
2023-02-06T04:31:40.521Z,99.90
2023-02-06T04:34:07.439Z,99.90
2023-02-06T04:36:34.536Z,99.90
2023-02-06T04:39:01.869Z,99.90
2023-02-06T04:41:28.605Z,99.90
2023-02-06T04:43:55.382Z,99.90
2023-02-06T04:46:22.245Z,99.90
2023-02-06T04:48:49.165Z,99.90
2023-02-06T04:51:15.956Z,99.90
2023-02-06T04:53:42.737Z,99.90
2023-02-06T04:56:12.097Z,99.90
2023-02-06T04:58:40.085Z,99.90
2023-02-06T05:01:06.926Z,99.90
2023-02-06T05:03:33.844Z,99.90
2023-02-06T05:06:01.833Z,99.90
2023-02-06T05:08:29.137Z,99.90
2023-02-06T05:10:56.657Z,99.90
2023-02-06T05:13:23.847Z,99.90
2023-02-06T05:15:50.976Z,99.90
2023-02-06T05:18:18.225Z,99.90
2023-02-06T05:20:45.237Z,99.90
2023-02-06T05:23:12.345Z,99.90
2023-02-06T05:25:40.833Z,99.90
2023-02-06T05:28:09.198Z,99.90
2023-02-06T05:30:36.306Z,99.90
2023-02-06T05:33:03.117Z,99.90
2023-02-06T05:35:29.926Z,99.90
2023-02-06T05:37:57.731Z,99.90
2023-02-06T05:40:24.718Z,99.90
2023-02-06T05:42:51.656Z,99.90
2023-02-06T05:45:18.648Z,99.90
2023-02-06T05:47:45.537Z,99.90
2023-02-06T05:50:12.439Z,99.90
2023-02-06T05:52:39.286Z,99.90
2023-02-06T05:55:07.022Z,99.90
2023-02-06T05:57:33.893Z,99.90
2023-02-06T06:00:00.792Z,99.90
2023-02-06T06:02:27.631Z,99.90
2023-02-06T06:04:54.524Z,99.90
2023-02-06T06:07:21.492Z,99.90
2023-02-06T06:09:49.214Z,99.90
2023-02-06T06:12:16.190Z,99.90
2023-02-06T06:14:43.061Z,99.90
2023-02-06T06:17:09.852Z,99.90
2023-02-06T06:19:36.779Z,99.90
2023-02-06T06:22:03.733Z,99.90
2023-02-06T06:24:30.534Z,99.90
2023-02-06T06:26:59.413Z,99.90
2023-02-06T06:29:27.065Z,99.90
2023-02-06T06:31:54.062Z,99.90
2023-02-06T06:34:21.238Z,99.90
2023-02-06T06:36:48.070Z,99.90
2023-02-06T06:39:14.810Z,99.90
2023-02-06T06:41:41.581Z,99.90
2023-02-06T06:44:08.675Z,99.90
2023-02-06T06:46:35.484Z,99.90
2023-02-06T06:49:02.468Z,99.90
2023-02-06T06:51:30.137Z,99.90
2023-02-06T06:53:57.537Z,99.90
2023-02-06T06:56:24.660Z,99.90
2023-02-06T06:58:51.688Z,99.90
2023-02-06T07:01:19.322Z,99.90
2023-02-06T07:03:48.397Z,99.90
2023-02-06T07:06:16.546Z,99.90
2023-02-06T07:08:43.720Z,99.90
2023-02-06T07:11:15.027Z,99.90
2023-02-06T07:13:42.873Z,99.90
2023-02-06T07:16:10.065Z,99.90
2023-02-06T07:18:38.540Z,99.90
2023-02-06T07:21:06.366Z,99.90
2023-02-06T07:23:33.154Z,99.90
2023-02-06T07:26:02.400Z,99.90
2023-02-06T07:28:30.488Z,99.90
2023-02-06T07:31:01.154Z,99.90
2023-02-06T07:33:28.461Z,99.90
2023-02-06T07:35:55.311Z,99.90
2023-02-06T07:38:22.365Z,99.90
2023-02-06T07:40:49.352Z,99.90
2023-02-06T07:43:16.649Z,99.90
2023-02-06T07:45:43.499Z,99.90
2023-02-06T07:48:10.692Z,99.90
2023-02-06T07:50:37.994Z,99.90
2023-02-06T07:53:04.925Z,99.90
2023-02-06T07:55:31.797Z,99.90
2023-02-06T07:57:58.646Z,99.90
2023-02-06T08:00:25.558Z,99.90
2023-02-06T08:02:52.629Z,99.90
2023-02-06T08:05:19.647Z,99.90
2023-02-06T08:07:46.513Z,99.90
2023-02-06T08:10:13.381Z,99.90
2023-02-06T08:12:40.258Z,99.90
2023-02-06T08:15:07.429Z,99.90
2023-02-06T08:17:34.244Z,99.90
2023-02-06T08:20:01.136Z,99.90
2023-02-06T08:22:29.746Z,99.90
2023-02-06T08:24:56.833Z,99.90
2023-02-06T08:27:23.729Z,99.90
2023-02-06T08:29:51.751Z,99.90
2023-02-06T08:32:18.507Z,99.90
2023-02-06T08:34:45.428Z,99.90
2023-02-06T08:37:12.498Z,99.90
2023-02-06T08:39:39.603Z,99.90
2023-02-06T08:42:06.563Z,99.90
2023-02-06T08:44:33.588Z,99.90
2023-02-06T08:47:09.674Z,99.90
2023-02-06T08:49:37.667Z,99.90
2023-02-06T08:52:04.936Z,99.90
2023-02-06T08:54:33.851Z,99.90
2023-02-06T08:57:02.712Z,99.90
2023-02-06T08:59:31.112Z,99.90
2023-02-06T09:01:58.434Z,99.90
2023-02-06T09:04:25.293Z,99.90
2023-02-06T09:06:52.293Z,99.90
2023-02-06T09:09:19.304Z,99.90
2023-02-06T09:11:46.171Z,99.90
2023-02-06T09:14:17.800Z,99.90
2023-02-06T09:16:44.893Z,99.90
2023-02-06T09:19:12.098Z,99.90
2023-02-06T09:21:39.097Z,99.90
2023-02-06T09:24:08.692Z,99.90
2023-02-06T09:26:44.816Z,99.90
2023-02-06T09:29:20.454Z,99.90
2023-02-06T09:31:47.864Z,99.90
2023-02-06T09:34:15.006Z,99.90
2023-02-06T09:36:41.897Z,99.90
2023-02-06T09:39:09.676Z,99.90
2023-02-06T09:41:45.366Z,99.90
2023-02-06T09:44:18.139Z,99.90
2023-02-06T09:46:52.169Z,99.90
2023-02-06T09:49:29.173Z,99.90
2023-02-06T09:52:04.978Z,99.90
2023-02-06T09:54:37.876Z,99.60
2023-02-06T09:57:34.868Z,99.50
2023-02-06T10:00:25.059Z,99.30
2023-02-06T10:03:04.227Z,98.70
2023-02-06T10:05:49.475Z,98.10
2023-02-06T10:08:29.222Z,96.90
2023-02-06T10:11:00.400Z,97.20
2023-02-06T10:13:45.607Z,97.60
2023-02-06T10:16:15.305Z,97.70
2023-02-06T10:18:47.691Z,97.80
2023-02-06T10:21:47.195Z,97.80
2023-02-06T10:24:42.044Z,97.60
2023-02-06T10:27:14.372Z,97.70
2023-02-06T10:29:42.759Z,97.70
2023-02-06T10:32:16.766Z,98.10
2023-02-06T10:35:08.033Z,97.70
2023-02-06T10:37:34.878Z,97.90
2023-02-06T10:40:26.018Z,97.70
2023-02-06T10:43:14.924Z,97.70
2023-02-06T10:46:00.285Z,97.40
2023-02-06T10:48:40.371Z,97.00
2023-02-06T10:51:35.492Z,97.10
2023-02-06T10:54:15.533Z,96.40
2023-02-06T10:56:45.279Z,96.60
2023-02-06T10:59:18.045Z,96.80
2023-02-06T11:01:47.993Z,96.80
2023-02-06T11:04:21.496Z,96.50
2023-02-06T11:06:48.434Z,96.60
2023-02-06T11:09:15.978Z,95.90
2023-02-06T11:11:48.472Z,95.80
2023-02-06T11:14:25.045Z,95.90
2023-02-06T11:16:52.794Z,95.80
2023-02-06T11:19:33.781Z,95.60
2023-02-06T11:22:15.078Z,95.40
2023-02-06T11:25:05.775Z,95.40
2023-02-06T11:27:35.052Z,95.90
2023-02-06T11:30:09.797Z,96.20
2023-02-06T11:32:52.759Z,96.40
2023-02-06T11:35:39.904Z,96.70
2023-02-06T11:38:13.186Z,97.00
2023-02-06T11:40:40.082Z,97.10
2023-02-06T11:43:18.115Z,97.00
2023-02-06T11:45:47.225Z,97.00
2023-02-06T11:49:01.679Z,97.00
2023-02-06T11:51:48.719Z,97.30
2023-02-06T11:54:31.047Z,97.50
2023-02-06T11:57:11.081Z,97.70
2023-02-06T11:59:50.849Z,97.80
2023-02-06T12:02:35.582Z,98.00
2023-02-06T12:05:13.104Z,98.10
2023-02-06T12:07:43.453Z,98.00
2023-02-06T12:10:15.935Z,97.80
2023-02-06T12:12:49.451Z,97.70
2023-02-06T12:15:46.410Z,97.90
2023-02-06T12:18:14.205Z,97.90
2023-02-06T12:20:54.545Z,97.90
2023-02-06T12:23:39.509Z,97.90
2023-02-06T12:26:21.784Z,98.10
2023-02-06T12:28:59.784Z,98.10
2023-02-06T12:31:43.780Z,98.00
2023-02-06T12:34:40.840Z,98.00
2023-02-06T12:37:20.705Z,98.10
2023-02-06T12:39:48.842Z,98.30
2023-02-06T12:42:34.509Z,98.10
2023-02-06T12:45:05.451Z,98.40
2023-02-06T12:47:44.438Z,98.10
2023-02-06T12:50:19.033Z,98.20
2023-02-06T12:53:10.417Z,98.10
2023-02-06T12:55:47.528Z,98.00
2023-02-06T12:58:32.080Z,97.90
2023-02-06T13:01:30.135Z,98.00
2023-02-06T13:04:04.394Z,98.10
2023-02-06T13:06:42.928Z,98.10
2023-02-06T13:09:20.279Z,98.00
2023-02-06T13:11:47.543Z,98.00
2023-02-06T13:14:28.841Z,98.10
2023-02-06T13:17:12.390Z,98.10
2023-02-06T13:19:39.157Z,98.10
2023-02-06T13:22:16.775Z,97.90
2023-02-06T13:24:46.819Z,97.60
2023-02-06T13:27:17.654Z,97.40
2023-02-06T13:29:49.630Z,97.20
2023-02-06T13:32:18.652Z,97.00
2023-02-06T13:35:04.283Z,97.10
2023-02-06T13:37:47.845Z,97.30
2023-02-06T13:40:24.368Z,97.30
2023-02-06T13:43:09.128Z,97.10
2023-02-06T13:45:59.337Z,97.30
2023-02-06T13:48:53.981Z,97.10
2023-02-06T13:51:39.627Z,97.00
2023-02-06T13:54:27.550Z,97.20
2023-02-06T13:57:34.724Z,97.10
2023-02-06T14:00:08.964Z,97.10
2023-02-06T14:02:41.192Z,97.50
2023-02-06T14:05:16.681Z,97.90
2023-02-06T14:07:55.662Z,98.20
2023-02-06T14:10:25.472Z,98.30
2023-02-06T14:13:09.558Z,98.40
2023-02-06T14:15:56.226Z,98.70
2023-02-06T14:18:35.345Z,98.20
2023-02-06T14:21:08.057Z,98.20
2023-02-06T14:24:17.466Z,98.10
2023-02-06T14:26:50.270Z,98.10
2023-02-06T14:29:25.924Z,98.10
2023-02-06T14:32:15.725Z,98.00
2023-02-06T14:34:52.891Z,98.10
2023-02-06T14:37:50.644Z,98.20
2023-02-06T14:40:22.595Z,98.10
2023-02-06T14:42:51.101Z,97.90
2023-02-06T14:45:41.690Z,98.10
2023-02-06T14:48:26.421Z,98.30
2023-02-06T14:50:56.574Z,98.50
2023-02-06T14:53:35.145Z,98.50
2023-02-06T14:56:26.411Z,98.40
2023-02-06T14:58:53.538Z,98.60
2023-02-06T15:01:27.664Z,98.80
2023-02-06T15:04:16.026Z,98.80
2023-02-06T15:07:03.764Z,98.70
2023-02-06T15:09:40.387Z,98.90
2023-02-06T15:12:24.706Z,99.00
2023-02-06T15:15:31.434Z,98.70
2023-02-06T15:18:05.457Z,98.70
2023-02-06T15:20:42.561Z,98.70
2023-02-06T15:23:18.187Z,98.90
2023-02-06T15:26:14.629Z,99.00
2023-02-06T15:28:41.694Z,99.40
2023-02-06T15:31:20.745Z,99.60
2023-02-06T15:33:51.249Z,99.80
2023-02-06T15:36:31.668Z,99.50
2023-02-06T15:39:00.292Z,99.20
2023-02-06T15:41:30.845Z,99.30
2023-02-06T15:44:07.052Z,99.50
2023-02-06T15:46:34.112Z,99.90
2023-02-06T15:49:00.992Z,99.90
2023-02-06T15:51:38.183Z,99.90
2023-02-06T15:54:18.749Z,99.90
2023-02-06T15:56:50.953Z,99.90
2023-02-06T15:59:24.230Z,99.90
2023-02-06T16:01:54.001Z,99.90
2023-02-06T16:04:36.335Z,99.90
2023-02-06T16:07:15.041Z,99.90
2023-02-06T16:09:53.604Z,99.90
2023-02-06T16:12:21.734Z,99.90
2023-02-06T16:14:58.827Z,99.90
2023-02-06T16:17:37.891Z,99.90
2023-02-06T16:20:24.244Z,99.90
2023-02-06T16:22:51.514Z,99.90
2023-02-06T16:25:30.357Z,99.90
2023-02-06T16:27:57.807Z,99.90
2023-02-06T16:30:32.446Z,99.90
2023-02-06T16:33:11.790Z,99.90
2023-02-06T16:35:38.705Z,99.90
2023-02-06T16:38:09.312Z,99.90
2023-02-06T16:40:36.413Z,99.90
2023-02-06T16:43:03.618Z,99.90
2023-02-06T16:45:30.440Z,99.90
2023-02-06T16:47:57.417Z,99.90
2023-02-06T16:50:24.262Z,99.90
2023-02-06T16:52:54.209Z,99.90
2023-02-06T16:55:24.353Z,99.90
2023-02-06T16:57:54.853Z,99.90
2023-02-06T17:00:23.268Z,99.90
2023-02-06T17:02:52.040Z,99.90
2023-02-06T17:05:21.110Z,99.90
2023-02-06T17:07:51.327Z,99.90
2023-02-06T17:10:20.285Z,99.90
2023-02-06T17:12:48.024Z,99.90
2023-02-06T17:15:17.388Z,99.90
2023-02-06T17:17:45.055Z,99.90
2023-02-06T17:20:36.197Z,99.90
2023-02-06T17:23:04.194Z,99.90
2023-02-06T17:25:31.827Z,99.90
2023-02-06T17:27:59.158Z,99.90
2023-02-06T17:30:26.514Z,99.90
2023-02-06T17:32:54.035Z,99.90
2023-02-06T17:35:20.962Z,99.90
2023-02-06T17:37:49.134Z,99.90
2023-02-06T17:40:20.459Z,99.90
2023-02-06T17:42:48.082Z,99.90
2023-02-06T17:45:15.162Z,99.90
2023-02-06T17:47:42.347Z,99.90
2023-02-06T17:50:12.904Z,99.90
2023-02-06T17:52:39.731Z,99.90
2023-02-06T17:55:07.191Z,99.90
2023-02-06T17:57:38.192Z,99.90
2023-02-06T18:00:08.902Z,99.90
2023-02-06T18:02:36.788Z,99.90
2023-02-06T18:05:04.558Z,99.90
2023-02-06T18:07:31.466Z,99.90
2023-02-06T18:09:58.339Z,99.90
2023-02-06T18:12:25.392Z,99.90
2023-02-06T18:14:52.205Z,99.90
2023-02-06T18:17:19.374Z,99.90
2023-02-06T18:19:48.278Z,99.90
2023-02-06T18:22:17.986Z,99.90
2023-02-06T18:24:45.593Z,99.90
2023-02-06T18:27:12.792Z,99.90
2023-02-06T18:29:49.917Z,99.90
2023-02-06T18:32:18.896Z,99.90
2023-02-06T18:34:46.019Z,99.90
2023-02-06T18:37:13.116Z,99.90
2023-02-06T18:39:40.048Z,99.90
2023-02-06T18:42:25.945Z,99.90
2023-02-06T18:44:52.708Z,99.90
2023-02-06T18:47:19.852Z,99.90
2023-02-06T18:49:47.059Z,99.90
2023-02-06T18:52:14.554Z,99.90
2023-02-06T18:54:42.392Z,99.90
2023-02-06T18:57:09.267Z,99.90
2023-02-06T18:59:36.161Z,99.90
2023-02-06T19:02:03.101Z,99.90
2023-02-06T19:04:29.974Z,99.90
2023-02-06T19:06:56.944Z,99.90
2023-02-06T19:09:23.896Z,99.90
2023-02-06T19:11:53.222Z,99.90
2023-02-06T19:14:22.564Z,99.90
2023-02-06T19:16:51.290Z,99.90
2023-02-06T19:19:18.807Z,99.90
2023-02-06T19:21:46.035Z,99.90
2023-02-06T19:24:15.283Z,99.90
2023-02-06T19:26:42.214Z,99.90
2023-02-06T19:29:09.669Z,99.90
2023-02-06T19:31:39.407Z,99.90
2023-02-06T19:34:06.751Z,99.90
2023-02-06T19:36:35.129Z,99.90
2023-02-06T19:39:06.049Z,99.90
2023-02-06T19:41:34.268Z,99.90
2023-02-06T19:44:05.196Z,99.90
2023-02-06T19:46:32.215Z,99.90
2023-02-06T19:48:59.150Z,99.90
2023-02-06T19:51:30.085Z,99.90
2023-02-06T19:53:58.934Z,99.90
2023-02-06T19:56:40.270Z,99.90
2023-02-06T19:59:18.338Z,99.90
2023-02-06T20:01:50.533Z,99.90
2023-02-06T20:04:18.531Z,99.90
2023-02-06T20:06:46.325Z,99.90
2023-02-06T20:09:15.045Z,99.90
2023-02-06T20:11:42.545Z,99.90
2023-02-06T20:14:09.886Z,99.90
2023-02-06T20:16:39.037Z,99.90
2023-02-06T20:19:13.283Z,99.90
2023-02-06T20:21:42.523Z,99.90
2023-02-06T20:24:12.754Z,99.90
2023-02-06T20:26:41.902Z,99.90
2023-02-06T20:29:09.692Z,99.90
2023-02-06T20:31:36.964Z,99.90
2023-02-06T20:34:04.163Z,99.90
2023-02-06T20:36:31.152Z,99.90
2023-02-06T20:38:59.691Z,99.90
2023-02-06T20:41:31.360Z,99.90
2023-02-06T20:44:00.472Z,99.90
2023-02-06T20:46:29.776Z,99.90
2023-02-06T20:49:00.552Z,99.90
2023-02-06T20:51:28.590Z,99.90
2023-02-06T20:53:55.626Z,99.90
2023-02-06T20:56:23.174Z,99.90
2023-02-06T20:58:51.228Z,99.90
2023-02-06T21:01:22.185Z,99.90
2023-02-06T21:03:50.695Z,99.90
2023-02-06T21:06:18.133Z,99.90
2023-02-06T21:08:50.285Z,99.90
2023-02-06T21:11:17.620Z,99.90
2023-02-06T21:13:44.496Z,99.90
2023-02-06T21:16:13.516Z,99.90
2023-02-06T21:18:42.670Z,99.90
2023-02-06T21:21:13.035Z,99.90
2023-02-06T21:23:41.437Z,99.90
2023-02-06T21:26:09.931Z,99.90
2023-02-06T21:28:37.972Z,99.90
2023-02-06T21:31:06.267Z,99.90
2023-02-06T21:33:33.616Z,99.90
2023-02-06T21:36:02.682Z,99.90
2023-02-06T21:38:29.904Z,99.90
2023-02-06T21:40:58.323Z,99.90
2023-02-06T21:43:25.084Z,99.90
2023-02-06T21:45:51.844Z,99.90
2023-02-06T21:48:18.753Z,99.90
2023-02-06T21:50:45.660Z,99.90
2023-02-06T21:53:12.510Z,99.90
2023-02-06T21:55:46.042Z,99.90
2023-02-06T21:58:16.578Z,99.90
2023-02-06T22:00:45.076Z,99.90
2023-02-06T22:03:12.931Z,99.90
2023-02-06T22:05:39.733Z,99.90
2023-02-06T22:08:06.805Z,99.90
2023-02-06T22:10:37.293Z,99.90
2023-02-06T22:13:05.411Z,99.90
2023-02-06T22:15:33.225Z,99.90
2023-02-06T22:18:00.253Z,99.90
2023-02-06T22:20:27.290Z,99.90
2023-02-06T22:22:55.296Z,99.90
2023-02-06T22:25:22.326Z,99.90
2023-02-06T22:27:49.058Z,99.90
2023-02-06T22:30:16.030Z,99.90
2023-02-06T22:32:42.971Z,99.90
2023-02-06T22:35:10.374Z,99.90
2023-02-06T22:37:37.210Z,99.90
2023-02-06T22:40:04.657Z,99.90
2023-02-06T22:42:31.679Z,99.90
2023-02-06T22:44:58.866Z,99.90
2023-02-06T22:47:25.667Z,99.90
2023-02-06T22:49:52.832Z,99.90
2023-02-06T22:52:38.367Z,99.90
2023-02-06T22:55:05.817Z,99.90
2023-02-06T22:57:35.277Z,99.90
2023-02-06T23:00:02.149Z,99.90
2023-02-06T23:02:29.056Z,99.90
2023-02-06T23:04:55.871Z,99.90
2023-02-06T23:07:22.652Z,99.90
2023-02-06T23:09:49.622Z,99.90
2023-02-06T23:12:16.504Z,99.90
2023-02-06T23:14:43.375Z,99.90
2023-02-06T23:17:11.277Z,99.90
2023-02-06T23:19:39.361Z,99.90
2023-02-06T23:22:06.475Z,99.90
2023-02-06T23:24:33.467Z,99.90
2023-02-06T23:27:00.263Z,99.90
2023-02-06T23:29:27.132Z,99.90
2023-02-06T23:31:54.207Z,99.90
2023-02-06T23:34:23.778Z,99.90
2023-02-06T23:36:52.066Z,99.90
2023-02-06T23:39:19.132Z,99.90
2023-02-06T23:41:46.176Z,99.90
2023-02-06T23:44:13.124Z,99.90
2023-02-06T23:46:40.767Z,99.90
2023-02-06T23:49:08.453Z,99.90
2023-02-06T23:51:36.565Z,99.90
2023-02-06T23:54:04.489Z,99.90
2023-02-06T23:56:32.442Z,99.90
2023-02-06T23:59:00.074Z,99.90
